Time;durP1;ratioP1;P1;durP2;ratioP2;P2;SDS_P1;SDS_P2;PMS_P1;PMS_P2;Temp;Humidity;BMP_temperature;BMP_pressure;BME280_temperature;BME280_humidity;BME280_pressure;Samples;Min_cycle;Max_cycle;Signal;HPM_P1;HPM_P2
2022/06/16 00:00:07;;;;;;;;;11.25;11.25;;;;;26.23;37.60;101191.25;2107268;27;47523;-63
2022/06/16 00:01:08;;;;;;;;;12.40;12.40;;;;;26.23;37.93;101187.69;2107153;27;48019;-60
2022/06/16 00:02:12;;;;;;;;;9.75;9.75;;;;;26.21;37.66;101182.38;2109581;27;47800;-62
2022/06/16 00:03:13;;;;;;;;;11.40;10.40;;;;;26.20;37.57;101180.63;2106436;27;47015;-62
2022/06/16 00:04:14;;;;;;;;;11.75;10.75;;;;;26.19;37.90;101172.59;2108225;27;47514;-62
2022/06/16 00:05:22;;;;;;;;;13.00;12.00;;;;;26.18;38.10;101179.91;2109055;27;47714;-62
2022/06/16 00:06:23;;;;;;;;;11.40;10.20;;;;;26.15;37.95;101181.97;2105471;27;47531;-63
2022/06/16 00:07:23;;;;;;;;;11.50;11.00;;;;;26.16;38.14;101180.97;2108751;27;47334;-61
2022/06/16 00:08:23;;;;;;;;;11.00;10.75;;;;;26.14;38.17;101183.81;2109135;27;47667;-62
2022/06/16 00:09:24;;;;;;;;;11.50;11.00;;;;;26.12;37.62;101185.81;2096553;28;47626;-63
2022/06/16 00:10:24;;;;;;;;;12.00;12.00;;;;;26.12;37.67;101185.81;2100020;28;48095;-62
2022/06/16 00:11:25;;;;;;;;;12.00;12.00;;;;;26.10;37.73;101180.50;2107320;27;47749;-61
2022/06/16 00:12:26;;;;;;;;;9.00;9.00;;;;;26.09;37.79;101189.66;2106960;27;47483;-62
2022/06/16 00:13:29;;;;;;;;;13.25;12.75;;;;;26.09;38.21;101189.66;2109191;27;47526;-62
2022/06/16 00:14:30;;;;;;;;;11.80;11.80;;;;;26.06;38.52;101184.47;2105881;27;47672;-62
2022/06/16 00:15:30;;;;;;;;;10.50;10.50;;;;;26.03;37.97;101184.69;2099211;28;47619;-62
2022/06/16 00:16:31;;;;;;;;;10.75;9.75;;;;;26.01;38.56;101193.94;2100262;28;47497;-61
2022/06/16 00:17:32;;;;;;;;;11.20;11.20;;;;;25.97;38.11;101184.31;2104984;28;47893;-61
2022/06/16 00:18:34;;;;;;;;;11.75;11.75;;;;;25.95;38.80;101195.31;2098114;28;47816;-62
2022/06/16 00:19:34;;;;;;;;;12.00;11.20;;;;;25.94;38.47;101190.00;2097017;27;47436;-62
2022/06/16 00:20:34;;;;;;;;;12.75;12.25;;;;;25.92;38.47;101191.94;2106028;27;47488;-62
2022/06/16 00:21:35;;;;;;;;;11.50;10.25;;;;;25.90;38.27;101194.78;2107057;27;47938;-62
2022/06/16 00:22:36;;;;;;;;;14.25;13.25;;;;;25.88;38.50;101194.03;2105114;28;47577;-62
2022/06/16 00:23:38;;;;;;;;;11.20;10.60;;;;;25.87;38.77;101196.88;2107254;27;47353;-62
2022/06/16 00:24:38;;;;;;;;;12.60;12.60;;;;;25.84;38.50;101197.13;2107130;27;47512;-62
2022/06/16 00:25:39;;;;;;;;;11.00;11.00;;;;;25.81;38.27;101201.84;2095467;28;47455;-62
2022/06/16 00:26:39;;;;;;;;;11.00;10.00;;;;;25.80;38.88;101197.38;2097116;28;47493;-62
2022/06/16 00:27:40;;;;;;;;;10.50;10.50;;;;;25.80;39.14;101197.38;2106080;27;47585;-62
2022/06/16 00:28:42;;;;;;;;;10.00;8.00;;;;;25.81;39.07;101195.53;2105713;27;47655;-63
2022/06/16 00:29:42;;;;;;;;;10.00;10.00;;;;;25.82;38.61;101199.97;2106948;27;47717;-63
2022/06/16 00:30:43;;;;;;;;;9.00;9.00;;;;;25.82;39.06;101202.69;2105004;28;47240;-62
2022/06/16 00:31:43;;;;;;;;;13.75;13.75;;;;;25.81;38.68;101200.97;2106998;27;47408;-63
2022/06/16 00:32:44;;;;;;;;;14.75;11.00;;;;;25.81;39.09;101207.28;2106805;27;47720;-62
2022/06/16 00:33:44;;;;;;;;;12.50;12.00;;;;;25.82;38.95;101205.41;2095618;28;47779;-62
2022/06/16 00:34:45;;;;;;;;;13.50;13.50;;;;;25.83;39.03;101203.56;2089110;28;47690;-63
2022/06/16 00:35:45;;;;;;;;;12.50;12.25;;;;;25.83;38.92;101207.16;2097220;28;46344;-63
2022/06/16 00:36:46;;;;;;;;;11.25;10.75;;;;;25.82;38.82;101208.13;2105483;27;48481;-62
2022/06/16 00:37:46;;;;;;;;;14.75;13.00;;;;;25.83;38.96;101204.44;2106855;27;47603;-63
2022/06/16 00:38:47;;;;;;;;;10.50;10.50;;;;;25.84;39.28;101210.72;2100011;28;48106;-63
2022/06/16 00:39:47;;;;;;;;;11.50;11.00;;;;;25.83;38.93;101206.28;2104048;27;47996;-63
2022/06/16 00:40:48;;;;;;;;;10.25;10.25;;;;;25.82;39.28;101210.84;2107011;27;47689;-62
2022/06/16 00:41:48;;;;;;;;;11.50;11.50;;;;;25.82;39.19;101213.56;2105263;28;48186;-63
2022/06/16 00:42:49;;;;;;;;;13.75;13.75;;;;;25.83;39.11;101215.31;2106711;27;47978;-62
2022/06/16 00:43:49;;;;;;;;;10.25;9.75;;;;;25.83;38.92;101214.44;2106277;27;47571;-62
2022/06/16 00:44:53;;;;;;;;;11.00;11.00;;;;;25.82;39.43;101216.28;2105566;27;47749;-63
2022/06/16 00:46:03;;;;;;;;;10.40;10.40;;;;;25.81;38.93;101211.84;2107897;27;47689;-62
2022/06/16 00:47:04;;;;;;;;;11.60;11.60;;;;;25.80;39.62;101216.41;2105233;27;48201;-62
2022/06/16 00:48:04;;;;;;;;;10.00;10.00;;;;;25.79;39.68;101220.13;2108452;27;47794;-62
2022/06/16 00:49:09;;;;;;;;;12.25;10.50;;;;;25.79;39.23;101221.94;2109988;27;47862;-62
2022/06/16 00:50:10;;;;;;;;;12.20;10.80;;;;;25.78;38.97;101223.81;2097977;27;47304;-63
2022/06/16 00:51:32;;;;;;;;;10.25;10.25;;;;;25.78;39.72;101229.22;2109225;27;47785;-62
2022/06/16 00:52:33;;;;;;;;;10.20;10.20;;;;;25.76;39.52;101225.78;2110050;27;47275;-63
2022/06/16 00:53:36;;;;;;;;;12.00;11.20;;;;;25.76;39.16;101227.63;2107295;27;48105;-63
2022/06/16 00:54:43;;;;;;;;;10.60;10.60;;;;;25.76;39.17;101227.63;2107549;27;48039;-62
2022/06/16 00:55:44;;;;;;;;;13.00;13.00;;;;;25.74;39.13;101225.03;2100696;28;47238;-61
2022/06/16 00:56:47;;;;;;;;;12.00;11.75;;;;;25.74;39.61;101229.59;2097645;27;47432;-62
2022/06/16 00:57:49;;;;;;;;;12.00;12.00;;;;;25.71;39.31;101230.72;2107569;27;48054;-61
2022/06/16 00:59:02;;;;;;;;;13.00;12.00;;;;;25.71;39.31;101233.44;2105081;27;47408;-61
2022/06/16 01:00:11;;;;;;;;;10.40;10.40;;;;;25.69;39.57;101229.97;2106857;27;47979;-62
2022/06/16 01:01:13;;;;;;;;;13.80;12.00;;;;;25.67;39.77;101226.47;2105930;27;48064;-62
2022/06/16 01:02:14;;;;;;;;;13.40;11.80;;;;;25.67;39.41;101231.03;2106848;27;48104;-63
2022/06/16 01:04:53;;;;;;;;;14.20;13.00;;;;;25.65;39.63;101230.28;2104849;27;48134;-61
2022/06/16 01:05:54;;;;;;;;;14.40;14.40;;;;;25.64;39.56;101231.25;2095231;28;47681;-63
2022/06/16 01:06:57;;;;;;;;;18.25;18.25;;;;;25.63;39.96;101238.53;2082701;28;47648;-63
2022/06/16 01:07:58;;;;;;;;;16.60;16.60;;;;;25.61;40.14;101232.38;2087300;28;47237;-62
2022/06/16 01:09:19;;;;;;;;;15.00;14.20;;;;;25.59;40.30;101239.78;2105044;27;47927;-62
2022/06/16 01:10:20;;;;;;;;;13.00;13.00;;;;;25.56;40.25;101240.00;2109132;27;47465;-62
2022/06/16 01:13:43;;;;;;;;;11.20;11.20;;;;;25.50;39.97;101246.75;2095320;28;47776;-61
2022/06/16 01:14:58;;;;;;;;;10.80;10.80;;;;;25.47;40.67;101246.13;2098358;27;48114;-63
2022/06/16 01:16:16;;;;;;;;;12.00;11.60;;;;;25.45;40.56;101248.97;2104884;27;48073;-63
2022/06/16 01:17:58;;;;;;;;;11.80;11.80;;;;;25.45;40.85;101250.84;2106741;27;47827;-63
2022/06/16 01:18:58;;;;;;;;;12.60;12.60;;;;;25.43;40.70;101250.09;2078769;28;47717;-62
2022/06/16 01:20:20;;;;;;;;;11.75;11.75;;;;;25.41;40.64;101252.03;2076619;28;47899;-62
2022/06/16 01:21:49;;;;;;;;;11.60;11.40;;;;;25.38;40.26;101253.13;2064052;28;47710;-62
2022/06/16 01:23:04;;;;;;;;;12.60;12.40;;;;;25.35;40.29;101253.38;2069754;28;47621;-62
2022/06/16 01:24:40;;;;;;;;;13.60;12.00;;;;;25.34;40.87;101254.34;2062812;28;47586;-63
2022/06/16 01:25:53;;;;;;;;;14.40;13.80;;;;;25.33;40.53;101252.63;2030543;29;47599;-60
2022/06/16 01:27:23;;;;;;;;;12.80;12.80;;;;;25.32;40.86;101258.16;2037541;28;47853;-63
2022/06/16 01:28:59;;;;;;;;;11.40;11.40;;;;;25.30;41.25;101254.72;2038493;28;47822;-62
2022/06/16 01:30:30;;;;;;;;;13.00;13.00;;;;;25.28;41.16;101260.22;2038293;28;47677;-62
2022/06/16 01:31:47;;;;;;;;;14.40;12.00;;;;;25.24;40.84;101259.59;2034594;28;48104;-62
2022/06/16 01:33:08;;;;;;;;;12.00;12.00;;;;;25.22;41.30;101263.41;2037385;28;47752;-62
2022/06/16 01:34:20;;;;;;;;;14.80;14.40;;;;;25.22;41.04;101264.28;2038395;28;47521;-62
2022/06/16 01:35:45;;;;;;;;;13.80;13.20;;;;;25.22;40.90;101264.28;2038258;28;47919;-62
2022/06/16 01:37:10;;;;;;;;;13.80;13.80;;;;;25.21;41.12;101262.56;2037511;28;47976;-62
2022/06/16 01:38:31;;;;;;;;;10.80;10.80;;;;;25.20;41.11;101262.66;2038402;28;47587;-62
2022/06/16 01:39:52;;;;;;;;;11.00;11.00;;;;;25.17;41.22;101265.63;2038114;28;46951;-61
2022/06/16 01:41:14;;;;;;;;;10.40;10.40;;;;;25.15;41.12;101264.84;2038298;28;47783;-61
2022/06/16 01:42:23;;;;;;;;;11.40;10.80;;;;;25.14;41.14;101271.25;2038333;28;48337;-61
2022/06/16 01:43:52;;;;;;;;;16.40;13.80;;;;;25.14;41.07;101276.69;2030134;29;47846;-61
2022/06/16 01:45:22;;;;;;;;;9.40;9.40;;;;;25.14;41.63;101271.25;2030552;29;47684;-62
2022/06/16 01:46:26;;;;;;;;;13.00;12.20;;;;;25.13;41.42;101269.53;2014307;29;47561;-61
2022/06/16 01:47:30;;;;;;;;;14.60;12.00;;;;;25.11;41.73;101269.63;2016692;29;48026;-61
2022/06/16 01:48:34;;;;;;;;;14.20;13.20;;;;;25.10;41.42;101276.06;2014825;29;48432;-63
2022/06/16 01:49:41;;;;;;;;;12.40;12.40;;;;;25.10;41.97;101270.63;2014683;29;48213;-62
2022/06/16 01:50:51;;;;;;;;;15.60;15.60;;;;;25.09;41.51;101270.75;2014781;29;47824;-62
2022/06/16 01:52:00;;;;;;;;;14.00;12.20;;;;;25.07;42.03;101270.84;2014501;29;47842;-62
2022/06/16 01:53:09;;;;;;;;;14.00;14.00;;;;;25.06;41.74;101273.69;2014590;29;48309;-62
2022/06/16 01:54:23;;;;;;;;;13.40;13.40;;;;;25.04;41.91;101275.66;2014326;29;47728;-63
2022/06/16 01:55:33;;;;;;;;;14.20;14.20;;;;;25.02;41.74;101272.16;2015003;29;47338;-61
2022/06/16 01:56:43;;;;;;;;;14.00;13.80;;;;;25.01;41.89;101278.56;2016337;29;47254;-61
2022/06/16 01:58:12;;;;;;;;;13.80;13.80;;;;;24.99;42.11;101280.50;2025301;29;47379;-63
2022/06/16 01:59:20;;;;;;;;;15.60;15.60;;;;;24.97;42.04;101280.63;2025825;29;47290;-63
2022/06/16 02:00:24;;;;;;;;;13.80;13.80;;;;;24.96;42.23;101284.31;2034624;28;47404;-61
2022/06/16 02:01:28;;;;;;;;;15.00;15.00;;;;;24.95;42.44;101285.28;2030173;28;48143;-63
2022/06/16 02:02:33;;;;;;;;;17.00;17.00;;;;;24.93;42.40;101290.84;2033835;28;47592;-63
2022/06/16 02:03:39;;;;;;;;;12.80;12.80;;;;;24.93;42.14;101287.25;2059063;28;47586;-62
2022/06/16 02:04:48;;;;;;;;;17.20;16.40;;;;;24.92;42.70;101288.25;2062471;28;47880;-62
2022/06/16 02:05:53;;;;;;;;;16.40;16.40;;;;;24.91;42.24;101286.50;2065125;28;47962;-63
2022/06/16 02:07:00;;;;;;;;;16.40;13.40;;;;;24.90;42.42;101291.06;2066666;28;47659;-65
2022/06/16 02:08:13;;;;;;;;;14.60;13.60;;;;;24.90;42.63;101291.06;2063724;28;47282;-62
2022/06/16 02:09:21;;;;;;;;;14.40;14.40;;;;;24.90;42.57;101295.59;2063487;28;48170;-62
2022/06/16 02:10:29;;;;;;;;;15.00;15.00;;;;;24.89;42.70;101294.75;2066791;28;48137;-63
2022/06/16 02:11:32;;;;;;;;;14.60;14.60;;;;;24.89;42.86;101305.59;2065630;28;48149;-62
2022/06/16 02:14:11;;;;;;;;;12.00;11.20;;;;;24.89;42.91;101293.88;2064469;28;47591;-64
2022/06/16 02:15:23;;;;;;;;;14.20;13.80;;;;;24.89;42.76;101302.00;2067313;28;47398;-63
2022/06/16 02:16:29;;;;;;;;;13.60;13.60;;;;;24.89;42.93;101296.59;2066763;28;47668;-63
2022/06/16 02:17:29;;;;;;;;;15.80;14.80;;;;;24.88;42.69;101301.16;2062371;28;45680;-62
2022/06/16 02:18:35;;;;;;;;;14.25;12.75;;;;;24.89;42.99;101302.00;2065432;28;47293;-63
2022/06/16 02:19:37;;;;;;;;;12.40;12.40;;;;;24.86;42.93;101300.41;2062402;28;47607;-63
2022/06/16 02:20:46;;;;;;;;;13.60;13.60;;;;;24.86;42.83;101294.09;2062083;28;46750;-63
2022/06/16 02:21:50;;;;;;;;;14.80;14.80;;;;;24.85;42.61;101295.09;2047450;28;48117;-62
2022/06/16 02:22:50;;;;;;;;;14.20;13.60;;;;;24.84;42.90;101299.66;2047502;28;47810;-62
2022/06/16 02:23:51;;;;;;;;;13.00;12.50;;;;;24.84;42.81;101296.94;2070596;28;47389;-62
2022/06/16 02:24:52;;;;;;;;;13.40;13.00;;;;;24.84;42.96;101296.06;2080194;28;47812;-63
2022/06/16 02:25:55;;;;;;;;;14.75;14.75;;;;;24.84;42.99;101298.78;2070475;28;47473;-62
2022/06/16 02:26:58;;;;;;;;;16.60;15.60;;;;;24.82;42.64;101296.19;2072073;28;47754;-62
2022/06/16 02:27:58;;;;;;;;;15.00;13.40;;;;;24.82;42.59;101298.91;2080239;28;47583;-62
2022/06/16 02:29:01;;;;;;;;;13.75;13.25;;;;;24.81;42.91;101297.16;2078489;28;48305;-62
2022/06/16 02:30:02;;;;;;;;;11.20;11.20;;;;;24.81;42.51;101293.56;2080377;28;47570;-62
2022/06/16 02:31:25;;;;;;;;;14.20;14.20;;;;;24.81;43.08;101299.88;2071941;28;47329;-63
2022/06/16 02:33:04;;;;;;;;;13.00;13.00;;;;;24.83;42.95;101297.03;2073241;28;46570;-63
2022/06/16 02:34:22;;;;;;;;;21.60;17.60;;;;;24.84;42.87;101299.66;2078947;28;48136;-62
2022/06/16 02:35:31;;;;;;;;;18.80;16.80;;;;;24.85;42.66;101300.50;2077995;28;47363;-63
2022/06/16 02:36:54;;;;;;;;;14.80;14.40;;;;;24.84;42.64;101296.06;2081878;28;47741;-62
2022/06/16 02:38:22;;;;;;;;;17.80;16.40;;;;;24.83;42.76;101297.91;2103605;27;47747;-63
2022/06/16 02:39:50;;;;;;;;;14.00;14.00;;;;;24.83;42.78;101295.19;2105538;27;47965;-63
2022/06/16 02:41:18;;;;;;;;;17.20;16.60;;;;;24.83;42.67;101299.75;2100701;27;47662;-63
2022/06/16 02:42:27;;;;;;;;;17.40;16.20;;;;;24.81;42.83;101304.44;2105744;27;47693;-61
2022/06/16 02:43:49;;;;;;;;;14.80;14.20;;;;;24.80;43.04;101300.00;2104498;28;48023;-61
2022/06/16 02:45:21;;;;;;;;;19.00;15.80;;;;;24.78;43.00;101301.94;2104694;27;46472;-62
2022/06/16 02:46:37;;;;;;;;;15.60;14.60;;;;;24.78;42.99;101302.81;2066587;28;47816;-61
2022/06/16 02:47:58;;;;;;;;;18.40;18.40;;;;;24.77;42.83;101303.75;2067482;28;47245;-62
2022/06/16 02:49:11;;;;;;;;;13.80;13.80;;;;;24.76;42.82;101299.31;2073864;28;47682;-62
2022/06/16 02:50:23;;;;;;;;;14.40;14.40;;;;;24.76;42.95;101302.03;2070587;28;48299;-62
2022/06/16 02:51:44;;;;;;;;;16.60;15.60;;;;;24.77;43.27;101302.91;2072023;28;47863;-62
2022/06/16 02:52:51;;;;;;;;;14.00;13.80;;;;;24.77;42.87;101300.19;2065780;28;47888;-62
2022/06/16 02:55:12;;;;;;;;;19.00;17.20;;;;;24.76;42.75;101303.88;2062523;28;47793;-62
2022/06/16 02:56:27;;;;;;;;;17.60;16.20;;;;;24.73;42.85;101299.53;2069654;28;48123;-61
2022/06/16 02:57:39;;;;;;;;;18.20;18.00;;;;;24.74;42.74;101303.13;2069810;28;48489;-61
2022/06/16 02:58:43;;;;;;;;;17.40;16.60;;;;;24.72;42.94;101302.38;2069882;28;47565;-61
2022/06/16 02:59:50;;;;;;;;;18.60;16.60;;;;;24.72;42.88;101308.66;2070359;28;45941;-61
2022/06/16 03:00:55;;;;;;;;;18.00;18.00;;;;;24.69;42.80;101311.59;2065930;28;47387;-63
2022/06/16 03:02:11;;;;;;;;;18.40;16.00;;;;;24.69;42.71;101310.75;2069919;28;48092;-61
2022/06/16 03:03:26;;;;;;;;;17.00;17.00;;;;;24.68;42.70;101303.59;2069823;28;47743;-62
2022/06/16 03:04:38;;;;;;;;;18.40;18.40;;;;;24.68;43.11;101309.88;2069860;28;47655;-62
2022/06/16 03:05:38;;;;;;;;;17.20;16.80;;;;;24.68;42.91;101311.72;2065912;28;47710;-61
2022/06/16 03:06:39;;;;;;;;;20.75;19.25;;;;;24.67;42.75;101310.84;2070265;28;47930;-62
2022/06/16 03:07:41;;;;;;;;;14.00;14.00;;;;;24.65;42.91;101312.81;2070097;28;47783;-61
2022/06/16 03:08:43;;;;;;;;;15.80;15.80;;;;;24.63;42.86;101312.03;2069782;28;47567;-61
2022/06/16 03:09:44;;;;;;;;;17.20;15.60;;;;;24.62;42.85;101310.28;2069866;28;48133;-62
2022/06/16 03:10:51;;;;;;;;;18.20;17.20;;;;;24.60;43.02;101312.25;2070814;28;48146;-61
2022/06/16 03:11:51;;;;;;;;;16.60;15.80;;;;;24.58;42.62;101316.94;2071807;28;47617;-62
2022/06/16 03:12:51;;;;;;;;;16.50;16.00;;;;;24.57;42.78;101313.34;2071337;28;48131;-62
2022/06/16 03:13:52;;;;;;;;;21.50;19.75;;;;;24.58;43.29;101316.94;2071405;28;47816;-62
2022/06/16 03:14:53;;;;;;;;;18.00;18.00;;;;;24.57;43.08;101317.91;2071340;28;47362;-61
2022/06/16 03:15:55;;;;;;;;;18.00;17.75;;;;;24.56;43.04;101321.59;2071539;28;47105;-61
2022/06/16 03:16:56;;;;;;;;;17.60;15.40;;;;;24.54;43.07;101310.00;2071094;28;47723;-62
2022/06/16 03:17:57;;;;;;;;;17.40;17.00;;;;;24.53;43.22;101317.25;2073788;28;48009;-62
2022/06/16 03:18:58;;;;;;;;;18.50;18.25;;;;;24.53;42.85;101319.13;2070750;28;47559;-62
2022/06/16 03:19:58;;;;;;;;;17.00;17.00;;;;;24.53;43.47;101316.41;2071311;28;47554;-62
2022/06/16 03:20:59;;;;;;;;;18.00;18.00;;;;;24.51;43.10;101319.19;2071405;28;47820;-63
2022/06/16 03:22:00;;;;;;;;;16.75;16.75;;;;;24.51;43.31;101321.91;2071111;28;48035;-61
2022/06/16 03:23:00;;;;;;;;;19.00;18.00;;;;;24.50;43.23;101325.59;2065228;28;47512;-62
2022/06/16 03:24:00;;;;;;;;;16.50;16.00;;;;;24.50;43.16;101324.72;2095970;28;47917;-62
2022/06/16 03:25:01;;;;;;;;;17.25;17.25;;;;;24.48;42.95;101322.13;2080643;28;48028;-62
2022/06/16 03:26:01;;;;;;;;;13.75;11.75;;;;;24.47;42.88;101331.25;2071745;28;47760;-62
2022/06/16 03:27:02;;;;;;;;;19.25;19.25;;;;;24.45;43.00;101329.63;2088977;28;47470;-62
2022/06/16 03:28:03;;;;;;;;;18.50;18.00;;;;;24.46;43.34;101324.09;2097779;28;48031;-62
2022/06/16 03:29:03;;;;;;;;;16.75;16.00;;;;;24.44;42.85;101326.03;2105481;28;47262;-62
2022/06/16 03:30:04;;;;;;;;;17.75;17.00;;;;;24.44;43.01;101326.03;2107038;27;47679;-61
2022/06/16 03:31:05;;;;;;;;;19.00;19.00;;;;;24.43;43.39;101324.31;2089059;28;47431;-61
2022/06/16 03:32:05;;;;;;;;;16.75;16.75;;;;;24.42;43.04;101338.84;2087153;28;47578;-62
2022/06/16 03:33:08;;;;;;;;;19.50;17.25;;;;;24.42;43.54;101329.84;2079435;28;47580;-62
2022/06/16 03:34:08;;;;;;;;;18.20;17.60;;;;;24.40;43.35;101334.50;2077558;27;47615;-62
2022/06/16 03:35:09;;;;;;;;;15.75;15.75;;;;;24.40;43.35;101334.50;2106040;27;45578;-62
2022/06/16 03:36:11;;;;;;;;;17.00;15.75;;;;;24.38;43.70;101337.31;2106634;27;47816;-62
2022/06/16 03:37:12;;;;;;;;;22.20;18.20;;;;;24.39;43.62;101332.75;2105539;28;48320;-62
2022/06/16 03:38:22;;;;;;;;;19.00;19.00;;;;;24.37;43.58;101335.56;2106215;27;47487;-61
2022/06/16 03:39:23;;;;;;;;;15.60;15.20;;;;;24.38;43.22;101336.44;2106894;27;47670;-62
2022/06/16 03:40:23;;;;;;;;;17.60;17.20;;;;;24.35;43.31;101335.69;2105252;28;48163;-61
2022/06/16 03:41:24;;;;;;;;;16.00;15.00;;;;;24.35;43.38;101332.09;2106749;27;47509;-62
2022/06/16 03:42:25;;;;;;;;;19.75;19.00;;;;;24.34;43.55;101335.78;2106432;27;47469;-64
2022/06/16 03:43:25;;;;;;;;;15.80;15.80;;;;;24.33;43.39;101339.47;2105498;28;47503;-62
2022/06/16 03:44:26;;;;;;;;;18.00;17.25;;;;;24.35;43.40;101337.53;2106428;27;47731;-60
2022/06/16 03:45:27;;;;;;;;;16.25;16.00;;;;;24.36;43.59;101334.72;2108806;27;47187;-64
2022/06/16 03:46:27;;;;;;;;;17.00;17.00;;;;;24.37;43.63;101335.56;2105165;27;48015;-60
2022/06/16 03:47:27;;;;;;;;;18.75;18.75;;;;;24.39;43.41;101335.47;2109539;27;47729;-61
2022/06/16 03:48:28;;;;;;;;;15.50;15.50;;;;;24.40;43.73;101331.81;2105221;28;48114;-62
2022/06/16 03:49:29;;;;;;;;;18.25;17.00;;;;;24.40;43.66;101329.09;2105300;27;47316;-62
2022/06/16 03:50:29;;;;;;;;;18.25;17.50;;;;;24.39;43.59;101330.03;2107640;27;48030;-62
2022/06/16 03:51:30;;;;;;;;;20.50;19.00;;;;;24.38;43.52;101333.72;2113612;27;47123;-61
2022/06/16 03:52:30;;;;;;;;;16.25;16.25;;;;;24.38;43.26;101333.72;2111250;27;47687;-62
2022/06/16 03:53:32;;;;;;;;;18.50;18.50;;;;;24.38;43.43;101334.59;2106483;27;47756;-62
2022/06/16 03:54:32;;;;;;;;;13.80;13.80;;;;;24.36;43.50;101342.84;2099235;28;47691;-62
2022/06/16 03:55:32;;;;;;;;;17.25;17.00;;;;;24.34;43.49;101333.94;2100502;28;47766;-60
2022/06/16 03:56:33;;;;;;;;;15.50;15.50;;;;;24.31;43.68;101331.47;2104876;28;48149;-61
2022/06/16 03:57:33;;;;;;;;;19.25;19.25;;;;;24.32;43.53;101340.47;2109587;27;47668;-62
2022/06/16 03:58:34;;;;;;;;;17.50;17.50;;;;;24.31;43.77;101336.00;2108132;27;46545;-62
2022/06/16 03:59:35;;;;;;;;;17.75;17.75;;;;;24.29;43.72;101333.38;2106292;27;48017;-62
2022/06/16 04:00:35;;;;;;;;;18.00;18.00;;;;;24.29;43.75;101341.53;2111490;27;47172;-62
2022/06/16 04:01:35;;;;;;;;;20.50;19.50;;;;;24.27;43.62;101338.03;2113560;27;47404;-61
2022/06/16 04:02:36;;;;;;;;;16.25;15.25;;;;;24.27;43.85;101339.88;2108213;27;48161;-61
2022/06/16 04:04:55;;;;;;;;;16.60;16.60;;;;;24.29;43.45;101340.66;2107220;27;48092;-61
2022/06/16 04:05:55;;;;;;;;;17.75;17.75;;;;;24.28;43.50;101345.22;2107366;27;48034;-61
2022/06/16 04:06:56;;;;;;;;;17.00;16.50;;;;;24.28;43.46;101350.63;2109183;27;46914;-62
2022/06/16 04:07:56;;;;;;;;;19.75;18.25;;;;;24.29;43.71;101348.78;2105492;27;47466;-62
2022/06/16 04:08:57;;;;;;;;;15.25;14.25;;;;;24.29;43.70;101343.38;2108939;27;47356;-62
2022/06/16 04:09:58;;;;;;;;;17.00;16.60;;;;;24.31;43.70;101355.00;2108821;27;47904;-63
2022/06/16 04:10:58;;;;;;;;;18.75;17.50;;;;;24.31;43.76;101352.28;2105773;27;47772;-63
2022/06/16 04:11:59;;;;;;;;;19.00;17.75;;;;;24.31;43.68;101344.16;2109120;27;47439;-64
2022/06/16 04:12:59;;;;;;;;;20.50;20.50;;;;;24.30;43.41;101350.56;2107280;27;46835;-63
2022/06/16 04:14:07;;;;;;;;;18.25;18.25;;;;;24.29;43.57;101346.94;2106878;27;47828;-64
2022/06/16 04:15:08;;;;;;;;;19.80;19.80;;;;;24.30;43.93;101350.56;2109310;27;47512;-64
2022/06/16 04:16:08;;;;;;;;;17.00;17.00;;;;;24.29;43.83;101346.94;2096741;28;47673;-63
2022/06/16 04:17:09;;;;;;;;;16.25;16.00;;;;;24.29;43.82;101346.94;2098191;28;47850;-63
2022/06/16 04:18:09;;;;;;;;;16.00;16.00;;;;;24.30;43.92;101340.56;2107278;27;47934;-62
2022/06/16 04:19:12;;;;;;;;;15.25;13.75;;;;;24.32;43.67;101354.91;2105290;28;47412;-63
2022/06/16 04:20:13;;;;;;;;;14.40;14.40;;;;;24.32;43.55;101349.47;2106713;27;47734;-63
2022/06/16 04:21:14;;;;;;;;;14.75;14.50;;;;;24.33;44.00;101343.06;2106011;27;48298;-62
2022/06/16 04:22:14;;;;;;;;;17.80;16.80;;;;;24.34;43.82;101341.22;2105428;27;47926;-63
2022/06/16 04:23:14;;;;;;;;;16.25;16.25;;;;;24.35;43.75;101351.09;2106386;27;47621;-63
2022/06/16 04:24:17;;;;;;;;;16.75;15.50;;;;;24.34;43.58;101342.09;2105381;28;47862;-61
2022/06/16 04:25:20;;;;;;;;;18.80;18.00;;;;;24.34;43.75;101346.66;2106517;27;48021;-62
2022/06/16 04:26:21;;;;;;;;;17.40;17.40;;;;;24.33;43.46;101347.63;2106257;27;48126;-61
2022/06/16 04:27:21;;;;;;;;;21.00;19.75;;;;;24.32;43.60;101352.19;2105322;28;47533;-61
2022/06/16 04:28:22;;;;;;;;;20.00;19.00;;;;;24.31;43.64;101352.28;2106023;27;47522;-62
2022/06/16 04:29:24;;;;;;;;;17.00;16.75;;;;;24.28;43.60;101358.78;2106269;27;48332;-61
2022/06/16 04:30:26;;;;;;;;;19.40;18.00;;;;;24.28;43.44;101364.19;2105019;28;47440;-61
2022/06/16 04:31:26;;;;;;;;;19.00;18.00;;;;;24.28;43.81;101363.31;2106508;27;47413;-61
2022/06/16 04:32:27;;;;;;;;;17.00;17.00;;;;;24.28;43.94;101366.03;2105619;27;47848;-62
2022/06/16 04:33:27;;;;;;;;;19.00;18.00;;;;;24.27;43.88;101364.31;2105801;27;47499;-63
2022/06/16 04:34:28;;;;;;;;;17.25;16.75;;;;;24.26;44.16;101368.81;2106110;27;47877;-63
2022/06/16 04:35:28;;;;;;;;;22.25;22.25;;;;;24.28;43.52;101371.47;2105155;28;47340;-62
2022/06/16 04:36:29;;;;;;;;;15.75;15.75;;;;;24.27;43.63;101367.00;2106126;27;48043;-62
2022/06/16 04:37:29;;;;;;;;;20.00;20.00;;;;;24.28;43.87;101372.34;2106242;27;47788;-62
2022/06/16 04:38:30;;;;;;;;;14.75;14.25;;;;;24.28;44.12;101371.47;2104406;27;47404;-62
2022/06/16 04:39:31;;;;;;;;;19.00;17.75;;;;;24.28;44.06;101377.75;2106066;27;47656;-63
2022/06/16 04:40:31;;;;;;;;;17.75;17.75;;;;;24.30;44.19;101366.84;2105123;27;48243;-62
2022/06/16 04:41:31;;;;;;;;;19.00;19.00;;;;;24.30;43.90;101369.53;2105514;27;47487;-62
2022/06/16 04:42:32;;;;;;;;;17.25;17.25;;;;;24.31;44.02;101369.44;2105648;27;47548;-62
2022/06/16 04:43:33;;;;;;;;;18.00;17.00;;;;;24.32;43.98;101368.47;2104909;28;47189;-62
2022/06/16 04:44:34;;;;;;;;;15.00;15.00;;;;;24.32;44.03;101370.31;2105840;27;47316;-62
2022/06/16 04:45:34;;;;;;;;;19.75;18.25;;;;;24.31;43.88;101374.00;2098199;28;47895;-62
2022/06/16 04:46:36;;;;;;;;;15.75;15.00;;;;;24.31;43.92;101385.72;2095119;28;47493;-61
2022/06/16 04:47:38;;;;;;;;;16.60;16.60;;;;;24.31;44.06;101374.84;2109585;27;47554;-61
2022/06/16 04:48:38;;;;;;;;;18.20;17.00;;;;;24.31;43.98;101377.56;2104864;28;45891;-62
2022/06/16 04:49:38;;;;;;;;;20.25;17.50;;;;;24.32;43.74;101376.59;2104864;27;47904;-62
2022/06/16 04:50:39;;;;;;;;;16.50;16.00;;;;;24.33;44.18;101381.03;2109550;27;48231;-62
2022/06/16 04:51:39;;;;;;;;;17.75;17.75;;;;;24.32;44.05;101379.31;2105282;27;47541;-62
2022/06/16 04:52:40;;;;;;;;;18.00;18.00;;;;;24.31;44.10;101380.28;2109461;27;47666;-63
2022/06/16 04:53:40;;;;;;;;;15.75;15.75;;;;;24.31;43.99;101379.41;2107536;27;48008;-62
2022/06/16 04:54:44;;;;;;;;;20.00;17.50;;;;;24.30;44.22;101383.09;2097862;28;47664;-62
2022/06/16 04:55:51;;;;;;;;;18.40;18.40;;;;;24.28;44.33;101387.75;2100752;28;47803;-63
2022/06/16 04:56:52;;;;;;;;;15.40;15.40;;;;;24.26;44.13;101382.38;2107352;27;47558;-62
2022/06/16 04:57:54;;;;;;;;;13.00;12.50;;;;;24.24;44.18;101386.19;2107090;27;47434;-63
2022/06/16 04:58:55;;;;;;;;;17.00;17.00;;;;;24.22;44.19;101386.28;2109243;27;48140;-62
2022/06/16 04:59:55;;;;;;;;;19.25;18.75;;;;;24.20;44.08;101388.25;2106130;27;48086;-63
2022/06/16 05:00:56;;;;;;;;;16.75;16.75;;;;;24.20;44.34;101398.22;2105552;27;47566;-63
2022/06/16 05:01:57;;;;;;;;;17.80;17.80;;;;;24.20;44.32;101392.81;2106936;27;47325;-62
2022/06/16 05:02:57;;;;;;;;;16.25;16.25;;;;;24.19;44.17;101393.78;2087194;28;47396;-63
2022/06/16 05:03:57;;;;;;;;;19.25;18.25;;;;;24.19;44.30;101391.06;2089170;28;47842;-61
2022/06/16 05:04:58;;;;;;;;;17.00;17.00;;;;;24.19;44.18;101394.66;2096406;28;47701;-63